This is the latest recevied weather packets stored in our database for station/object KJ7IVE-13. If no packets are shown the sender has not sent any weather packets the latest 10 day(s).
| Time | Temp. | Humidity | Pressure | Rain* | Wind** | Luminosity | Snow |
|---|---|---|---|---|---|---|---|
| 1777871289 | 16.67° C | 10% | 1010.9 hPa | 0 mm | - | 0 W/m² | - |
| 1777870985 | 16.67° C | 10% | 1010.5 hPa | 0 mm | - | 0 W/m² | - |
| 1777870682 | 16.67° C | 10% | 1010.8 hPa | 0 mm | - | 0 W/m² | - |
| 1777870377 | 16.67° C | 10% | 1010.7 hPa | 0 mm | - | 0 W/m² | - |
| 1777870075 | 16.67° C | 10% | 1010.6 hPa | 0 mm | - | 0 W/m² | - |
| 1777869772 | 16.67° C | 10% | 1010.9 hPa | 0 mm | - | 0 W/m² | - |
| 1777869469 | 17.22° C | 10% | 1010.8 hPa | 0 mm | - | 0 W/m² | - |
| 1777869166 | 16.67° C | 10% | 1010.8 hPa | 0 mm | - | 0 W/m² | - |
| 1777868864 | 17.22° C | 10% | 1010.6 hPa | 0 mm | - | 0 W/m² | - |
| 1777868559 | 17.22° C | 10% | 1010.8 hPa | 0 mm | - | 0 W/m² | - |
| 1777868250 | 17.22° C | 10% | 1010.8 hPa | 0 mm | - | 0 W/m² | - |
| 1777867946 | 17.22° C | 10% | 1010.7 hPa | 0 mm | - | 0 W/m² | - |
| 1777867643 | 17.78° C | 10% | 1010.8 hPa | 0 mm | - | 0 W/m² | - |
| 1777867340 | 17.78° C | 10% | 1010.9 hPa | 0 mm | - | 0 W/m² | - |
| 1777867036 | 17.78° C | 10% | 1010.8 hPa | 0 mm | - | 0 W/m² | - |
| 1777866734 | 18.33° C | 10% | 1010.9 hPa | 0 mm | - | 0 W/m² | - |
| 1777865826 | 18.89° C | 10% | 1010.6 hPa | 0 mm | - | 0 W/m² | - |
| 1777865523 | 18.89° C | 10% | 1010.6 hPa | 0 mm | - | 0 W/m² | - |
| 1777865220 | 18.89° C | 10% | 1010.8 hPa | 0 mm | - | 0 W/m² | - |
| 1777864917 | 18.89° C | 10% | 1010.9 hPa | 0 mm | - | 0 W/m² | - |
| 1777864614 | 18.89° C | 10% | 1010.5 hPa | 0 mm | - | 0 W/m² | - |
| 1777864310 | 19.44° C | 10% | 1010.9 hPa | 0 mm | - | 0 W/m² | - |
| 1777864007 | 20° C | 10% | 1010.7 hPa | 0 mm | - | 0 W/m² | - |
| 1777846725 | 25° C | 10% | 1013 hPa | 0 mm | - | 439 W/m² | - |
| 1777845210 | 24.44° C | 10% | 1013.3 hPa | 0 mm | - | 518 W/m² | - |
* Rain latest hour (hover to see other rain measurements)
** Current wind speed in m/s (hover to see current wind gust speed)